Time;durP1;ratioP1;P1;durP2;ratioP2;P2;SDS_P1;SDS_P2;PMS_P1;PMS_P2;Temp;Humidity;BMP_temperature;BMP_pressure;BME280_temperature;BME280_humidity;BME280_pressure;Samples;Min_cycle;Max_cycle;Signal;HPM_P1;HPM_P2
2021/03/11 00:09:41;;;;;;;69.97;30.25;;;;;;;-1.39;83.08;100701.87;10405687;85;21065;-78
2021/03/11 00:24:45;;;;;;;105.47;37.83;;;;;;;-1.44;84.17;100684.89;10176683;87;21065;-78
2021/03/11 00:39:49;;;;;;;72.08;28.80;;;;;;;-1.46;84.63;100693.12;10427157;82;21068;-77
2021/03/11 00:54:55;;;;;;;66.00;28.38;;;;;;;-1.59;84.73;100681.91;10481314;83;21579;-77
2021/03/11 01:10:00;;;;;;;71.87;32.55;;;;;;;-1.64;85.77;100668.34;10481517;83;21534;-78
2021/03/11 01:25:07;;;;;;;93.82;39.92;;;;;;;-1.74;87.24;100620.20;10475855;83;21108;-78
2021/03/11 01:40:12;;;;;;;70.32;32.53;;;;;;;-1.77;88.15;100598.45;10273255;85;21063;-78
2021/03/11 01:55:19;;;;;;;64.32;30.15;;;;;;;-1.70;87.47;100560.50;10481513;83;21497;-78
2021/03/11 02:10:26;;;;;;;63.87;31.17;;;;;;;-1.62;86.58;100544.78;10481038;83;21701;-78
2021/03/11 02:25:36;;;;;;;73.47;32.33;;;;;;;-1.56;85.57;100510.72;10420649;83;21924;-78
2021/03/11 02:40:42;;;;;;;76.15;34.00;;;;;;;-1.50;85.04;100517.38;10321064;83;21196;-78
2021/03/11 02:55:47;;;;;;;71.20;32.27;;;;;;;-1.48;83.93;100507.02;10270059;86;21065;-77
2021/03/11 03:10:54;;;;;;;65.70;29.55;;;;;;;-1.48;84.17;100496.73;9694274;88;21173;-78
2021/03/11 03:25:59;;;;;;;72.17;30.75;;;;;;;-1.55;84.54;100463.94;10011666;87;21061;-78
2021/03/11 03:41:04;;;;;;;49.77;23.60;;;;;;;-1.60;83.99;100446.53;10364862;84;21124;-79
2021/03/11 03:56:16;;;;;;;59.05;28.98;;;;;;;-1.59;82.93;100430.20;10393844;86;21163;-80
2021/03/11 04:11:21;;;;;;;58.55;27.20;;;;;;;-1.62;82.12;100435.02;10331695;86;21116;-78
2021/03/11 04:26:25;;;;;;;57.73;28.85;;;;;;;-1.76;82.28;100403.33;10320099;86;21551;-84
2021/03/11 04:41:30;;;;;;;120.22;50.30;;;;;;;-1.79;83.00;100388.47;10392107;84;21669;-90
2021/03/11 04:56:37;;;;;;;61.65;27.58;;;;;;;-1.86;83.61;100360.38;10496031;83;21094;-88
2021/03/11 05:11:43;;;;;;;53.20;24.85;;;;;;;-1.89;83.11;100339.92;10497968;84;21622;-92
2021/03/11 05:26:47;;;;;;;59.30;28.83;;;;;;;-1.71;82.21;100324.72;10345705;85;21238;-90
2021/03/11 05:41:52;;;;;;;63.75;29.82;;;;;;;-1.74;81.78;100274.22;10357345;85;21195;-93
2021/03/11 05:56:57;;;;;;;55.75;25.43;;;;;;;-1.70;81.69;100258.23;10472493;83;21095;-92
2021/03/11 06:12:02;;;;;;;113.30;45.90;;;;;;;-1.42;80.72;100241.27;10432214;83;21151;-89
2021/03/11 06:27:08;;;;;;;57.57;29.70;;;;;;;-1.09;79.07;100215.55;10450344;83;21478;-80
2021/03/11 06:42:14;;;;;;;59.23;28.73;;;;;;;-0.87;76.65;100221.48;10403228;82;21115;-82
2021/03/11 06:57:27;;;;;;;102.57;51.87;;;;;;;-0.71;75.75;100215.70;10458117;83;21064;-80
2021/03/11 07:12:50;;;;;;;60.20;30.23;;;;;;;-0.54;73.97;100198.20;10479222;83;21115;-80
2021/03/11 07:27:55;;;;;;;51.08;25.57;;;;;;;-0.25;72.29;100184.05;10479838;83;21798;-81
2021/03/11 07:43:00;;;;;;;48.33;27.25;;;;;;;0.06;69.90;100165.88;10477922;83;21068;-81
2021/03/11 07:58:08;;;;;;;51.08;26.85;;;;;;;0.40;67.64;100147.53;10479076;83;21163;-81
2021/03/11 08:13:34;;;;;;;49.03;25.35;;;;;;;0.76;65.87;100123.86;10426186;83;21045;-80
2021/03/11 08:28:40;;;;;;;47.83;23.90;;;;;;;0.80;64.32;100058.23;10321581;83;21167;-81
2021/03/11 08:43:52;;;;;;;56.68;28.42;;;;;;;1.25;62.41;100030.08;10339681;83;21179;-80
2021/03/11 08:58:58;;;;;;;133.63;52.27;;;;;;;1.48;60.21;99975.38;10430108;83;21135;-79
2021/03/11 09:14:09;;;;;;;43.05;18.37;;;;;;;1.74;56.82;99926.55;10464705;84;21103;-79
2021/03/11 09:29:15;;;;;;;69.90;29.55;;;;;;;1.74;56.82;99926.55;10453663;83;21491;-79
2021/03/11 09:44:19;;;;;;;40.40;20.05;;;;;;;1.74;56.43;99886.91;10469177;82;21055;-77
2021/03/11 09:59:23;;;;;;;56.25;24.10;;;;;;;1.54;54.65;99838.45;10472299;83;21098;-76
2021/03/11 10:14:29;;;;;;;36.88;20.02;;;;;;;1.72;53.59;99827.99;10504801;83;21023;-78
2021/03/11 10:29:35;;;;;;;54.65;23.02;;;;;;;1.57;53.46;99778.83;10497186;83;21104;-78
2021/03/11 10:44:45;;;;;;;129.95;61.83;;;;;;;1.80;53.19;99744.30;10463506;82;21117;-74
2021/03/11 10:59:57;;;;;;;44.03;21.10;;;;;;;1.70;53.76;99716.85;10459283;83;21086;-76
2021/03/11 11:15:03;;;;;;;55.90;28.57;;;;;;;1.59;53.63;99623.59;10465775;83;21037;-76
2021/03/11 11:30:14;;;;;;;37.28;19.10;;;;;;;1.80;54.80;99600.75;10414953;84;21509;-76
2021/03/11 11:45:22;;;;;;;52.33;25.27;;;;;;;1.85;54.10;99579.76;10426975;83;21525;-76
2021/03/11 12:00:28;;;;;;;41.50;21.67;;;;;;;1.87;55.25;99577.44;10398070;84;21040;-77
2021/03/11 12:15:33;;;;;;;38.08;20.77;;;;;;;1.80;56.27;99555.02;10188672;86;21036;-78
2021/03/11 12:30:39;;;;;;;132.52;53.83;;;;;;;1.26;64.95;99547.19;10179355;86;21021;-79
2021/03/11 12:45:43;;;;;;;76.42;39.67;;;;;;;0.94;70.23;99454.41;10080386;87;21147;-79
2021/03/11 13:00:49;;;;;;;77.12;38.08;;;;;;;0.82;79.09;99483.92;10372149;84;21251;-79
2021/03/11 13:15:54;;;;;;;70.03;31.80;;;;;;;0.18;98.51;99452.42;10362993;85;21230;-78
2021/03/11 13:30:59;;;;;;;71.07;32.83;;;;;;;-0.39;100.00;99308.77;10330940;85;21254;-80
2021/03/11 13:46:03;;;;;;;120.80;53.85;;;;;;;-0.39;100.00;99308.77;10415606;83;21163;-79
2021/03/11 14:01:14;;;;;;;133.90;51.60;;;;;;;-0.28;100.00;99235.48;10438984;83;21167;-80
2021/03/11 14:16:20;;;;;;;64.00;32.48;;;;;;;-0.28;100.00;99235.48;10475476;83;21036;-80
2021/03/11 14:31:26;;;;;;;79.22;39.23;;;;;;;-0.24;100.00;99233.56;10436481;83;21199;-80
2021/03/11 14:46:33;;;;;;;112.95;46.70;;;;;;;-0.25;100.00;99177.32;10447249;83;21155;-80
2021/03/11 15:01:39;;;;;;;67.97;33.20;;;;;;;-0.21;100.00;99162.03;10475756;83;21098;-79
2021/03/11 15:16:44;;;;;;;107.20;48.48;;;;;;;-0.08;100.00;99131.17;10465695;83;21160;-80
2021/03/11 15:31:49;;;;;;;103.07;46.00;;;;;;;-0.10;100.00;99092.22;10457076;83;21032;-79
2021/03/11 15:46:54;;;;;;;97.05;44.05;;;;;;;0.14;100.00;98965.55;10473957;82;21481;-79
2021/03/11 16:01:59;;;;;;;87.92;42.08;;;;;;;0.23;100.00;98960.73;10582739;82;21428;-80
2021/03/11 16:17:05;;;;;;;72.00;40.23;;;;;;;0.23;100.00;98960.73;10370920;84;21146;-79
2021/03/11 16:32:11;;;;;;;76.25;35.50;;;;;;;0.23;100.00;98978.31;10279207;85;21046;-80
2021/03/11 16:47:16;;;;;;;114.47;49.40;;;;;;;0.37;100.00;98959.36;10170338;85;21095;-81
2021/03/11 17:02:21;;;;;;;80.62;42.20;;;;;;;0.50;100.00;98871.59;10285391;86;21045;-80
2021/03/11 17:17:26;;;;;;;112.32;56.37;;;;;;;0.53;100.00;98798.30;10458528;83;21037;-79
2021/03/11 17:32:32;;;;;;;116.55;52.62;;;;;;;0.55;100.00;98779.67;10460211;83;21541;-79
2021/03/11 17:47:39;;;;;;;82.67;40.27;;;;;;;0.68;100.00;98772.70;9854349;88;21571;-82
2021/03/11 18:02:44;;;;;;;122.00;58.87;;;;;;;0.69;100.00;98730.92;10318991;81;21651;-81
2021/03/11 18:17:51;;;;;;;70.53;35.37;;;;;;;0.66;100.00;98719.09;10350529;84;21101;-81
2021/03/11 18:32:58;;;;;;;69.75;36.48;;;;;;;0.85;100.00;98682.90;10340677;84;21592;-80
2021/03/11 18:48:04;;;;;;;97.97;42.93;;;;;;;0.73;100.00;98587.34;10355612;84;21232;-80
2021/03/11 19:03:10;;;;;;;;;;;;;;;0.73;100.00;98587.34;10270172;85;21089;-79
2021/03/11 19:18:17;;;;;;;53.65;28.32;;;;;;;0.99;100.00;98556.17;10301045;85;20285;-80
2021/03/11 19:33:24;;;;;;;53.03;27.47;;;;;;;1.18;100.00;98558.64;10285621;85;21509;-79
2021/03/11 19:48:29;;;;;;;52.57;27.47;;;;;;;1.37;100.00;98564.00;10175710;84;21287;-80
2021/03/11 20:03:34;;;;;;;56.68;29.32;;;;;;;1.40;100.00;98475.09;10234187;85;21084;-81
2021/03/11 20:18:39;;;;;;;65.40;33.73;;;;;;;1.40;100.00;98475.09;10168310;86;21170;-83
2021/03/11 20:33:44;;;;;;;62.10;34.18;;;;;;;1.63;100.00;98487.49;10186885;86;21706;-81
2021/03/11 20:48:49;;;;;;;57.25;30.25;;;;;;;1.73;100.00;98472.89;10177449;86;21025;-80
2021/03/11 21:03:54;;;;;;;70.17;34.40;;;;;;;2.03;100.00;98460.99;10208152;85;21071;-81
2021/03/11 21:19:01;;;;;;;63.75;31.23;;;;;;;2.00;100.00;98448.32;10357788;84;21084;-80
2021/03/11 21:34:06;;;;;;;63.20;31.80;;;;;;;2.19;100.00;98442.47;10251161;85;21541;-80
2021/03/11 21:49:11;;;;;;;56.60;28.67;;;;;;;2.47;100.00;98423.34;10345878;84;21114;-81
2021/03/11 22:04:17;;;;;;;57.50;26.83;;;;;;;2.67;100.00;98425.54;10252376;85;21143;-81
2021/03/11 22:19:22;;;;;;;49.90;25.52;;;;;;;2.87;100.00;98416.06;10194396;85;21477;-81
2021/03/11 22:34:26;;;;;;;51.28;27.32;;;;;;;2.87;100.00;98417.84;10278952;85;21217;-81
2021/03/11 22:49:31;;;;;;;50.38;25.48;;;;;;;2.96;100.00;98408.80;10285510;85;21199;-80
2021/03/11 23:04:35;;;;;;;43.50;20.85;;;;;;;3.06;100.00;98403.66;10292364;85;21075;-80
2021/03/11 23:19:42;;;;;;;44.83;23.38;;;;;;;3.29;100.00;98398.23;10275630;85;21571;-80
2021/03/11 23:34:47;;;;;;;34.37;19.17;;;;;;;3.50;100.00;98391.63;10279107;85;21048;-80
2021/03/11 23:49:51;;;;;;;42.95;22.02;;;;;;;3.52;100.00;98384.51;10298323;85;21072;-79
